sensor_id;sensor_type;location;lat;lon;timestamp;P1;durP1;ratioP1;P2;durP2;ratioP2
42876;SDS011;42341;40.498;72.818;2023-02-22T00:00:36;30.73;;;12.70;;
42876;SDS011;42341;40.498;72.818;2023-02-22T00:05:43;20.95;;;11.07;;
42876;SDS011;42341;40.498;72.818;2023-02-22T00:08:14;22.05;;;10.38;;
42876;SDS011;42341;40.498;72.818;2023-02-22T00:10:41;19.53;;;9.13;;
42876;SDS011;42341;40.498;72.818;2023-02-22T00:13:08;19.88;;;11.23;;
42876;SDS011;42341;40.498;72.818;2023-02-22T00:15:37;25.70;;;12.93;;
42876;SDS011;42341;40.498;72.818;2023-02-22T00:18:06;31.17;;;11.07;;
42876;SDS011;42341;40.498;72.818;2023-02-22T00:20:36;32.38;;;17.48;;
42876;SDS011;42341;40.498;72.818;2023-02-22T00:23:06;28.08;;;16.42;;
42876;SDS011;42341;40.498;72.818;2023-02-22T00:28:02;25.45;;;12.85;;
42876;SDS011;42341;40.498;72.818;2023-02-22T00:30:29;30.15;;;12.48;;
42876;SDS011;42341;40.498;72.818;2023-02-22T00:32:56;24.58;;;11.93;;
42876;SDS011;42341;40.498;72.818;2023-02-22T00:35:23;25.50;;;12.05;;
42876;SDS011;42341;40.498;72.818;2023-02-22T00:37:52;32.42;;;11.25;;
42876;SDS011;42341;40.498;72.818;2023-02-22T00:40:22;25.02;;;11.52;;
42876;SDS011;42341;40.498;72.818;2023-02-22T00:42:50;21.35;;;9.57;;
42876;SDS011;42341;40.498;72.818;2023-02-22T00:45:18;17.67;;;10.43;;
42876;SDS011;42341;40.498;72.818;2023-02-22T00:47:46;17.88;;;9.60;;
42876;SDS011;42341;40.498;72.818;2023-02-22T00:50:12;19.85;;;10.05;;
42876;SDS011;42341;40.498;72.818;2023-02-22T00:52:39;28.77;;;13.30;;
42876;SDS011;42341;40.498;72.818;2023-02-22T00:55:07;61.92;;;22.15;;
42876;SDS011;42341;40.498;72.818;2023-02-22T00:57:35;61.17;;;27.10;;
42876;SDS011;42341;40.498;72.818;2023-02-22T01:00:05;66.95;;;27.48;;
42876;SDS011;42341;40.498;72.818;2023-02-22T01:02:39;46.22;;;18.15;;
42876;SDS011;42341;40.498;72.818;2023-02-22T01:05:07;34.38;;;16.05;;
42876;SDS011;42341;40.498;72.818;2023-02-22T01:07:36;50.35;;;20.85;;
42876;SDS011;42341;40.498;72.818;2023-02-22T01:10:03;48.20;;;18.70;;
42876;SDS011;42341;40.498;72.818;2023-02-22T01:12:30;54.08;;;23.58;;
42876;SDS011;42341;40.498;72.818;2023-02-22T01:14:56;68.00;;;30.23;;
42876;SDS011;42341;40.498;72.818;2023-02-22T01:17:25;88.32;;;35.10;;
42876;SDS011;42341;40.498;72.818;2023-02-22T01:19:51;78.18;;;32.20;;
42876;SDS011;42341;40.498;72.818;2023-02-22T01:22:22;66.35;;;31.17;;
42876;SDS011;42341;40.498;72.818;2023-02-22T01:24:48;63.95;;;31.20;;
42876;SDS011;42341;40.498;72.818;2023-02-22T01:27:15;44.97;;;22.98;;
42876;SDS011;42341;40.498;72.818;2023-02-22T01:29:42;68.97;;;31.25;;
42876;SDS011;42341;40.498;72.818;2023-02-22T01:32:09;83.15;;;47.08;;
42876;SDS011;42341;40.498;72.818;2023-02-22T01:34:36;55.20;;;24.95;;
42876;SDS011;42341;40.498;72.818;2023-02-22T01:37:03;46.53;;;17.98;;
42876;SDS011;42341;40.498;72.818;2023-02-22T01:39:30;46.05;;;20.30;;
42876;SDS011;42341;40.498;72.818;2023-02-22T01:41:57;48.67;;;20.27;;
42876;SDS011;42341;40.498;72.818;2023-02-22T01:44:36;37.95;;;19.70;;
42876;SDS011;42341;40.498;72.818;2023-02-22T01:47:05;36.10;;;19.10;;
42876;SDS011;42341;40.498;72.818;2023-02-22T01:49:40;42.80;;;18.87;;
42876;SDS011;42341;40.498;72.818;2023-02-22T01:52:12;135.57;;;53.67;;
42876;SDS011;42341;40.498;72.818;2023-02-22T01:54:42;86.82;;;34.80;;
42876;SDS011;42341;40.498;72.818;2023-02-22T01:59:47;66.22;;;31.67;;
42876;SDS011;42341;40.498;72.818;2023-02-22T02:02:16;87.85;;;37.20;;
42876;SDS011;42341;40.498;72.818;2023-02-22T02:04:46;85.63;;;38.17;;
42876;SDS011;42341;40.498;72.818;2023-02-22T02:07:13;92.82;;;38.28;;
42876;SDS011;42341;40.498;72.818;2023-02-22T02:12:24;87.00;;;37.47;;
42876;SDS011;42341;40.498;72.818;2023-02-22T02:15:14;75.80;;;33.33;;
42876;SDS011;42341;40.498;72.818;2023-02-22T02:18:00;55.22;;;26.75;;
42876;SDS011;42341;40.498;72.818;2023-02-22T02:31:52;134.10;;;38.90;;
42876;SDS011;42341;40.498;72.818;2023-02-22T02:43:06;66.88;;;27.33;;
42876;SDS011;42341;40.498;72.818;2023-02-22T02:46:00;113.25;;;29.45;;
42876;SDS011;42341;40.498;72.818;2023-02-22T02:48:55;273.48;;;57.75;;
42876;SDS011;42341;40.498;72.818;2023-02-22T02:51:27;144.95;;;39.55;;
42876;SDS011;42341;40.498;72.818;2023-02-22T02:53:57;149.70;;;38.63;;
42876;SDS011;42341;40.498;72.818;2023-02-22T02:56:26;121.30;;;39.75;;
42876;SDS011;42341;40.498;72.818;2023-02-22T02:58:53;72.68;;;25.45;;
42876;SDS011;42341;40.498;72.818;2023-02-22T03:13:05;49.63;;;19.05;;
42876;SDS011;42341;40.498;72.818;2023-02-22T03:15:44;41.70;;;17.88;;
42876;SDS011;42341;40.498;72.818;2023-02-22T03:18:49;63.10;;;21.60;;
42876;SDS011;42341;40.498;72.818;2023-02-22T03:21:26;69.47;;;21.77;;
42876;SDS011;42341;40.498;72.818;2023-02-22T03:26:55;33.40;;;13.60;;
42876;SDS011;42341;40.498;72.818;2023-02-22T03:29:23;43.10;;;18.30;;
42876;SDS011;42341;40.498;72.818;2023-02-22T03:31:54;42.38;;;20.88;;
42876;SDS011;42341;40.498;72.818;2023-02-22T03:34:26;43.20;;;15.55;;
42876;SDS011;42341;40.498;72.818;2023-02-22T03:36:59;51.92;;;22.00;;
42876;SDS011;42341;40.498;72.818;2023-02-22T03:39:30;69.85;;;23.63;;
42876;SDS011;42341;40.498;72.818;2023-02-22T03:42:02;60.00;;;19.52;;
42876;SDS011;42341;40.498;72.818;2023-02-22T03:44:32;77.22;;;21.92;;
42876;SDS011;42341;40.498;72.818;2023-02-22T03:47:03;43.17;;;17.08;;
42876;SDS011;42341;40.498;72.818;2023-02-22T03:49:36;29.83;;;13.60;;
42876;SDS011;42341;40.498;72.818;2023-02-22T03:52:09;29.70;;;12.98;;
42876;SDS011;42341;40.498;72.818;2023-02-22T03:54:37;35.05;;;13.15;;
42876;SDS011;42341;40.498;72.818;2023-02-22T03:57:05;37.28;;;12.43;;
42876;SDS011;42341;40.498;72.818;2023-02-22T03:59:33;39.63;;;14.52;;
42876;SDS011;42341;40.498;72.818;2023-02-22T04:02:00;46.60;;;12.35;;
42876;SDS011;42341;40.498;72.818;2023-02-22T04:04:26;29.33;;;10.73;;
42876;SDS011;42341;40.498;72.818;2023-02-22T04:06:52;20.58;;;7.43;;
42876;SDS011;42341;40.498;72.818;2023-02-22T04:09:18;27.00;;;8.85;;
42876;SDS011;42341;40.498;72.818;2023-02-22T04:11:45;29.27;;;11.80;;
42876;SDS011;42341;40.498;72.818;2023-02-22T04:14:11;28.75;;;9.13;;
42876;SDS011;42341;40.498;72.818;2023-02-22T04:16:37;31.27;;;9.55;;
42876;SDS011;42341;40.498;72.818;2023-02-22T04:19:04;37.90;;;17.00;;
42876;SDS011;42341;40.498;72.818;2023-02-22T04:21:30;54.30;;;19.35;;
42876;SDS011;42341;40.498;72.818;2023-02-22T04:23:56;54.17;;;22.60;;
42876;SDS011;42341;40.498;72.818;2023-02-22T04:26:23;35.05;;;14.48;;
42876;SDS011;42341;40.498;72.818;2023-02-22T04:28:49;40.95;;;18.33;;
42876;SDS011;42341;40.498;72.818;2023-02-22T04:31:15;33.22;;;16.13;;
42876;SDS011;42341;40.498;72.818;2023-02-22T04:33:41;38.42;;;14.02;;
42876;SDS011;42341;40.498;72.818;2023-02-22T04:36:08;53.22;;;15.63;;
42876;SDS011;42341;40.498;72.818;2023-02-22T04:38:35;42.85;;;19.65;;
42876;SDS011;42341;40.498;72.818;2023-02-22T04:41:01;24.70;;;12.30;;
42876;SDS011;42341;40.498;72.818;2023-02-22T04:43:27;16.42;;;7.78;;
42876;SDS011;42341;40.498;72.818;2023-02-22T04:45:56;19.05;;;6.65;;
42876;SDS011;42341;40.498;72.818;2023-02-22T04:48:22;21.38;;;7.65;;
42876;SDS011;42341;40.498;72.818;2023-02-22T04:50:47;27.38;;;9.65;;
42876;SDS011;42341;40.498;72.818;2023-02-22T04:53:15;18.10;;;7.50;;
42876;SDS011;42341;40.498;72.818;2023-02-22T04:55:41;26.70;;;7.75;;
42876;SDS011;42341;40.498;72.818;2023-02-22T04:58:07;18.27;;;7.15;;
42876;SDS011;42341;40.498;72.818;2023-02-22T05:00:33;18.05;;;8.25;;
42876;SDS011;42341;40.498;72.818;2023-02-22T05:02:59;21.42;;;8.18;;
42876;SDS011;42341;40.498;72.818;2023-02-22T05:05:25;21.30;;;8.32;;
42876;SDS011;42341;40.498;72.818;2023-02-22T05:07:51;17.58;;;7.68;;
42876;SDS011;42341;40.498;72.818;2023-02-22T05:10:17;15.60;;;7.93;;
42876;SDS011;42341;40.498;72.818;2023-02-22T05:12:43;21.27;;;7.60;;
42876;SDS011;42341;40.498;72.818;2023-02-22T05:15:09;22.10;;;7.80;;
42876;SDS011;42341;40.498;72.818;2023-02-22T05:17:39;12.85;;;5.70;;
42876;SDS011;42341;40.498;72.818;2023-02-22T05:20:05;14.50;;;7.35;;
42876;SDS011;42341;40.498;72.818;2023-02-22T05:22:33;14.73;;;5.75;;
42876;SDS011;42341;40.498;72.818;2023-02-22T05:25:00;16.20;;;5.53;;
42876;SDS011;42341;40.498;72.818;2023-02-22T05:27:27;11.68;;;5.45;;
42876;SDS011;42341;40.498;72.818;2023-02-22T05:29:53;10.50;;;6.05;;
42876;SDS011;42341;40.498;72.818;2023-02-22T05:32:19;31.30;;;7.50;;
42876;SDS011;42341;40.498;72.818;2023-02-22T05:34:45;14.80;;;6.38;;
42876;SDS011;42341;40.498;72.818;2023-02-22T05:37:11;13.05;;;7.18;;
42876;SDS011;42341;40.498;72.818;2023-02-22T05:39:37;9.52;;;6.35;;
42876;SDS011;42341;40.498;72.818;2023-02-22T05:42:03;15.30;;;6.50;;
42876;SDS011;42341;40.498;72.818;2023-02-22T05:44:29;12.43;;;7.03;;
42876;SDS011;42341;40.498;72.818;2023-02-22T05:46:55;19.92;;;7.45;;
42876;SDS011;42341;40.498;72.818;2023-02-22T05:49:21;26.92;;;8.32;;
42876;SDS011;42341;40.498;72.818;2023-02-22T05:51:47;14.27;;;7.15;;
42876;SDS011;42341;40.498;72.818;2023-02-22T05:54:13;15.70;;;7.07;;
42876;SDS011;42341;40.498;72.818;2023-02-22T05:56:39;16.48;;;7.03;;
42876;SDS011;42341;40.498;72.818;2023-02-22T05:59:05;18.88;;;7.28;;
42876;SDS011;42341;40.498;72.818;2023-02-22T06:01:31;21.95;;;7.38;;
42876;SDS011;42341;40.498;72.818;2023-02-22T06:03:57;17.35;;;7.45;;
42876;SDS011;42341;40.498;72.818;2023-02-22T06:06:23;38.92;;;6.75;;
42876;SDS011;42341;40.498;72.818;2023-02-22T06:08:49;7.05;;;3.13;;
42876;SDS011;42341;40.498;72.818;2023-02-22T06:11:15;6.93;;;3.28;;
42876;SDS011;42341;40.498;72.818;2023-02-22T06:13:41;9.77;;;3.92;;
42876;SDS011;42341;40.498;72.818;2023-02-22T06:16:06;7.57;;;3.80;;
42876;SDS011;42341;40.498;72.818;2023-02-22T06:18:32;6.35;;;4.13;;
42876;SDS011;42341;40.498;72.818;2023-02-22T06:20:59;9.88;;;4.38;;
42876;SDS011;42341;40.498;72.818;2023-02-22T06:23:25;10.23;;;4.75;;
42876;SDS011;42341;40.498;72.818;2023-02-22T06:25:51;17.80;;;6.05;;
42876;SDS011;42341;40.498;72.818;2023-02-22T06:28:17;17.88;;;8.25;;
42876;SDS011;42341;40.498;72.818;2023-02-22T06:30:43;17.70;;;8.82;;
42876;SDS011;42341;40.498;72.818;2023-02-22T06:33:10;17.75;;;7.53;;
42876;SDS011;42341;40.498;72.818;2023-02-22T06:35:36;17.42;;;8.32;;
42876;SDS011;42341;40.498;72.818;2023-02-22T06:38:02;39.78;;;18.08;;
42876;SDS011;42341;40.498;72.818;2023-02-22T06:40:28;66.68;;;19.85;;
42876;SDS011;42341;40.498;72.818;2023-02-22T06:42:55;62.70;;;21.38;;
42876;SDS011;42341;40.498;72.818;2023-02-22T06:45:22;63.85;;;24.55;;
42876;SDS011;42341;40.498;72.818;2023-02-22T06:47:48;74.38;;;28.55;;
42876;SDS011;42341;40.498;72.818;2023-02-22T06:50:19;56.50;;;27.13;;
42876;SDS011;42341;40.498;72.818;2023-02-22T06:52:55;51.15;;;27.25;;
42876;SDS011;42341;40.498;72.818;2023-02-22T06:55:26;53.20;;;24.55;;
42876;SDS011;42341;40.498;72.818;2023-02-22T06:57:53;58.67;;;25.60;;
42876;SDS011;42341;40.498;72.818;2023-02-22T07:00:20;63.47;;;25.38;;
42876;SDS011;42341;40.498;72.818;2023-02-22T07:02:48;70.00;;;28.17;;
42876;SDS011;42341;40.498;72.818;2023-02-22T07:05:15;62.63;;;25.88;;
42876;SDS011;42341;40.498;72.818;2023-02-22T07:07:43;64.97;;;27.90;;
42876;SDS011;42341;40.498;72.818;2023-02-22T07:10:23;48.22;;;22.27;;
42876;SDS011;42341;40.498;72.818;2023-02-22T07:12:51;47.42;;;22.27;;
42876;SDS011;42341;40.498;72.818;2023-02-22T07:15:18;62.53;;;23.95;;
42876;SDS011;42341;40.498;72.818;2023-02-22T07:17:46;51.47;;;21.50;;
42876;SDS011;42341;40.498;72.818;2023-02-22T07:20:12;42.90;;;19.90;;
42876;SDS011;42341;40.498;72.818;2023-02-22T07:22:38;45.25;;;20.17;;
42876;SDS011;42341;40.498;72.818;2023-02-22T07:25:07;48.40;;;22.70;;
42876;SDS011;42341;40.498;72.818;2023-02-22T07:27:36;41.90;;;20.67;;
42876;SDS011;42341;40.498;72.818;2023-02-22T07:30:06;45.20;;;22.90;;
42876;SDS011;42341;40.498;72.818;2023-02-22T07:32:43;44.00;;;22.98;;
42876;SDS011;42341;40.498;72.818;2023-02-22T07:35:14;50.08;;;25.10;;
42876;SDS011;42341;40.498;72.818;2023-02-22T07:37:42;55.45;;;28.08;;
42876;SDS011;42341;40.498;72.818;2023-02-22T07:40:09;53.88;;;26.70;;
42876;SDS011;42341;40.498;72.818;2023-02-22T07:42:55;51.22;;;24.02;;
42876;SDS011;42341;40.498;72.818;2023-02-22T07:45:24;47.47;;;23.27;;
42876;SDS011;42341;40.498;72.818;2023-02-22T07:47:55;44.67;;;21.73;;
42876;SDS011;42341;40.498;72.818;2023-02-22T07:50:25;52.47;;;24.55;;
42876;SDS011;42341;40.498;72.818;2023-02-22T07:52:55;40.17;;;20.63;;
42876;SDS011;42341;40.498;72.818;2023-02-22T07:55:23;38.53;;;20.55;;
42876;SDS011;42341;40.498;72.818;2023-02-22T07:57:52;45.85;;;20.55;;
42876;SDS011;42341;40.498;72.818;2023-02-22T08:00:24;37.47;;;18.45;;
42876;SDS011;42341;40.498;72.818;2023-02-22T08:02:58;51.38;;;21.13;;
42876;SDS011;42341;40.498;72.818;2023-02-22T08:05:26;47.63;;;21.17;;
42876;SDS011;42341;40.498;72.818;2023-02-22T08:07:52;51.72;;;21.58;;
42876;SDS011;42341;40.498;72.818;2023-02-22T08:10:19;69.38;;;22.17;;
42876;SDS011;42341;40.498;72.818;2023-02-22T08:12:47;47.72;;;20.70;;
42876;SDS011;42341;40.498;72.818;2023-02-22T08:15:15;39.03;;;19.63;;
42876;SDS011;42341;40.498;72.818;2023-02-22T08:17:44;46.20;;;19.73;;
42876;SDS011;42341;40.498;72.818;2023-02-22T08:20:10;37.72;;;17.90;;
42876;SDS011;42341;40.498;72.818;2023-02-22T08:22:36;44.80;;;19.42;;
42876;SDS011;42341;40.498;72.818;2023-02-22T08:25:02;42.35;;;20.13;;
42876;SDS011;42341;40.498;72.818;2023-02-22T08:27:28;42.08;;;19.30;;
42876;SDS011;42341;40.498;72.818;2023-02-22T08:29:55;35.58;;;19.08;;
42876;SDS011;42341;40.498;72.818;2023-02-22T08:32:21;39.83;;;18.90;;
42876;SDS011;42341;40.498;72.818;2023-02-22T08:34:48;61.08;;;19.70;;
42876;SDS011;42341;40.498;72.818;2023-02-22T08:37:14;46.30;;;19.00;;
42876;SDS011;42341;40.498;72.818;2023-02-22T08:39:41;39.92;;;17.35;;
42876;SDS011;42341;40.498;72.818;2023-02-22T08:42:07;33.95;;;17.48;;
42876;SDS011;42341;40.498;72.818;2023-02-22T08:44:34;46.35;;;18.25;;
42876;SDS011;42341;40.498;72.818;2023-02-22T08:47:01;36.95;;;16.33;;
42876;SDS011;42341;40.498;72.818;2023-02-22T08:49:27;31.08;;;16.48;;
42876;SDS011;42341;40.498;72.818;2023-02-22T08:51:53;43.72;;;16.65;;
42876;SDS011;42341;40.498;72.818;2023-02-22T08:54:19;38.97;;;16.58;;
42876;SDS011;42341;40.498;72.818;2023-02-22T08:56:46;37.42;;;15.52;;
42876;SDS011;42341;40.498;72.818;2023-02-22T08:59:13;38.28;;;15.60;;
42876;SDS011;42341;40.498;72.818;2023-02-22T09:01:39;41.83;;;17.27;;
42876;SDS011;42341;40.498;72.818;2023-02-22T09:04:05;32.72;;;15.73;;
42876;SDS011;42341;40.498;72.818;2023-02-22T09:06:31;33.70;;;16.48;;
42876;SDS011;42341;40.498;72.818;2023-02-22T09:08:57;37.28;;;14.20;;
42876;SDS011;42341;40.498;72.818;2023-02-22T09:11:23;44.20;;;16.30;;
42876;SDS011;42341;40.498;72.818;2023-02-22T09:13:49;35.75;;;15.13;;
42876;SDS011;42341;40.498;72.818;2023-02-22T09:16:15;27.52;;;13.98;;
42876;SDS011;42341;40.498;72.818;2023-02-22T09:18:41;38.22;;;12.57;;
42876;SDS011;42341;40.498;72.818;2023-02-22T09:21:07;36.95;;;13.50;;
42876;SDS011;42341;40.498;72.818;2023-02-22T09:23:33;29.33;;;14.70;;
42876;SDS011;42341;40.498;72.818;2023-02-22T09:25:59;38.95;;;14.25;;
42876;SDS011;42341;40.498;72.818;2023-02-22T09:28:25;35.65;;;13.60;;
42876;SDS011;42341;40.498;72.818;2023-02-22T09:30:52;36.13;;;14.90;;
42876;SDS011;42341;40.498;72.818;2023-02-22T09:33:18;35.78;;;13.73;;
42876;SDS011;42341;40.498;72.818;2023-02-22T09:35:46;22.40;;;11.82;;
42876;SDS011;42341;40.498;72.818;2023-02-22T09:38:17;35.13;;;13.60;;
42876;SDS011;42341;40.498;72.818;2023-02-22T09:40:51;35.80;;;12.80;;
42876;SDS011;42341;40.498;72.818;2023-02-22T09:43:38;30.20;;;16.60;;
42876;SDS011;42341;40.498;72.818;2023-02-22T09:46:14;29.63;;;14.25;;
42876;SDS011;42341;40.498;72.818;2023-02-22T09:52:23;22.00;;;11.85;;
42876;SDS011;42341;40.498;72.818;2023-02-22T09:57:21;41.00;;;18.77;;
42876;SDS011;42341;40.498;72.818;2023-02-22T10:00:05;31.15;;;13.75;;
42876;SDS011;42341;40.498;72.818;2023-02-22T10:02:46;26.38;;;13.00;;
42876;SDS011;42341;40.498;72.818;2023-02-22T10:08:05;27.67;;;14.82;;
42876;SDS011;42341;40.498;72.818;2023-02-22T10:10:43;37.67;;;13.48;;
42876;SDS011;42341;40.498;72.818;2023-02-22T10:13:22;24.75;;;11.55;;
42876;SDS011;42341;40.498;72.818;2023-02-22T10:16:12;28.02;;;12.85;;
42876;SDS011;42341;40.498;72.818;2023-02-22T10:19:06;30.08;;;13.13;;
42876;SDS011;42341;40.498;72.818;2023-02-22T10:26:44;42.75;;;13.55;;
42876;SDS011;42341;40.498;72.818;2023-02-22T10:31:46;29.17;;;13.63;;
42876;SDS011;42341;40.498;72.818;2023-02-22T10:34:21;42.63;;;17.20;;
42876;SDS011;42341;40.498;72.818;2023-02-22T10:36:53;32.67;;;14.25;;
42876;SDS011;42341;40.498;72.818;2023-02-22T10:39:29;37.05;;;14.98;;
42876;SDS011;42341;40.498;72.818;2023-02-22T10:41:58;42.08;;;21.13;;
42876;SDS011;42341;40.498;72.818;2023-02-22T10:44:31;67.97;;;34.13;;
42876;SDS011;42341;40.498;72.818;2023-02-22T10:46:58;91.25;;;46.58;;
42876;SDS011;42341;40.498;72.818;2023-02-22T10:49:29;94.93;;;51.47;;
42876;SDS011;42341;40.498;72.818;2023-02-22T10:52:01;94.18;;;50.22;;
42876;SDS011;42341;40.498;72.818;2023-02-22T10:54:38;103.35;;;49.83;;
42876;SDS011;42341;40.498;72.818;2023-02-22T10:57:09;87.38;;;50.88;;
42876;SDS011;42341;40.498;72.818;2023-02-22T10:59:38;94.47;;;52.25;;
42876;SDS011;42341;40.498;72.818;2023-02-22T11:04:45;96.38;;;54.20;;
42876;SDS011;42341;40.498;72.818;2023-02-22T11:07:17;101.75;;;55.00;;
42876;SDS011;42341;40.498;72.818;2023-02-22T11:12:20;96.70;;;54.72;;
42876;SDS011;42341;40.498;72.818;2023-02-22T11:14:56;84.07;;;49.40;;
42876;SDS011;42341;40.498;72.818;2023-02-22T11:17:49;101.75;;;50.90;;
42876;SDS011;42341;40.498;72.818;2023-02-22T11:20:23;88.25;;;49.85;;
42876;SDS011;42341;40.498;72.818;2023-02-22T11:22:52;94.95;;;52.47;;
42876;SDS011;42341;40.498;72.818;2023-02-22T11:25:22;124.13;;;63.25;;
42876;SDS011;42341;40.498;72.818;2023-02-22T11:27:50;124.25;;;69.93;;
42876;SDS011;42341;40.498;72.818;2023-02-22T11:32:49;137.30;;;71.60;;
42876;SDS011;42341;40.498;72.818;2023-02-22T11:35:37;136.45;;;81.47;;
42876;SDS011;42341;40.498;72.818;2023-02-22T11:38:18;120.68;;;77.63;;
42876;SDS011;42341;40.498;72.818;2023-02-22T11:41:34;143.70;;;84.22;;
42876;SDS011;42341;40.498;72.818;2023-02-22T11:43:52;135.07;;;80.85;;
42876;SDS011;42341;40.498;72.818;2023-02-22T11:46:21;122.78;;;75.03;;
42876;SDS011;42341;40.498;72.818;2023-02-22T11:49:02;128.27;;;71.32;;
42876;SDS011;42341;40.498;72.818;2023-02-22T11:56:35;127.18;;;77.07;;
42876;SDS011;42341;40.498;72.818;2023-02-22T12:01:54;145.23;;;83.75;;
42876;SDS011;42341;40.498;72.818;2023-02-22T12:07:36;160.43;;;97.55;;
42876;SDS011;42341;40.498;72.818;2023-02-22T12:10:36;135.80;;;80.90;;
42876;SDS011;42341;40.498;72.818;2023-02-22T12:13:37;133.20;;;78.85;;
42876;SDS011;42341;40.498;72.818;2023-02-22T12:19:40;121.53;;;74.95;;
42876;SDS011;42341;40.498;72.818;2023-02-22T12:25:15;162.13;;;90.78;;
42876;SDS011;42341;40.498;72.818;2023-02-22T12:28:38;150.88;;;89.32;;
42876;SDS011;42341;40.498;72.818;2023-02-22T12:30:55;140.00;;;76.78;;
42876;SDS011;42341;40.498;72.818;2023-02-22T12:33:37;137.55;;;81.15;;
42876;SDS011;42341;40.498;72.818;2023-02-22T12:36:14;148.85;;;81.38;;
42876;SDS011;42341;40.498;72.818;2023-02-22T12:38:47;147.25;;;86.93;;
42876;SDS011;42341;40.498;72.818;2023-02-22T12:41:41;141.43;;;82.80;;
42876;SDS011;42341;40.498;72.818;2023-02-22T12:44:19;142.20;;;78.85;;
42876;SDS011;42341;40.498;72.818;2023-02-22T12:46:51;144.00;;;80.65;;
42876;SDS011;42341;40.498;72.818;2023-02-22T13:00:50;226.35;;;110.43;;
42876;SDS011;42341;40.498;72.818;2023-02-22T13:06:10;205.45;;;110.68;;
42876;SDS011;42341;40.498;72.818;2023-02-22T13:11:57;201.98;;;104.13;;
42876;SDS011;42341;40.498;72.818;2023-02-22T13:22:50;228.70;;;120.88;;
42876;SDS011;42341;40.498;72.818;2023-02-22T13:28:18;383.45;;;195.35;;
42876;SDS011;42341;40.498;72.818;2023-02-22T13:30:55;459.45;;;237.35;;
42876;SDS011;42341;40.498;72.818;2023-02-22T13:53:13;314.88;;;172.55;;
42876;SDS011;42341;40.498;72.818;2023-02-22T13:55:45;310.20;;;168.50;;
42876;SDS011;42341;40.498;72.818;2023-02-22T13:58:16;354.02;;;199.85;;
42876;SDS011;42341;40.498;72.818;2023-02-22T14:00:43;332.70;;;192.05;;
42876;SDS011;42341;40.498;72.818;2023-02-22T14:13:25;301.35;;;167.65;;
42876;SDS011;42341;40.498;72.818;2023-02-22T14:18:43;284.08;;;160.70;;
42876;SDS011;42341;40.498;72.818;2023-02-22T14:23:44;296.85;;;168.82;;
42876;SDS011;42341;40.498;72.818;2023-02-22T14:28:43;295.60;;;165.82;;
42876;SDS011;42341;40.498;72.818;2023-02-22T14:31:18;316.77;;;170.88;;
42876;SDS011;42341;40.498;72.818;2023-02-22T14:33:55;308.52;;;172.60;;
42876;SDS011;42341;40.498;72.818;2023-02-22T14:36:31;278.70;;;149.97;;
42876;SDS011;42341;40.498;72.818;2023-02-22T14:44:50;344.55;;;206.60;;
42876;SDS011;42341;40.498;72.818;2023-02-22T14:53:06;314.20;;;178.98;;
42876;SDS011;42341;40.498;72.818;2023-02-22T14:55:50;309.98;;;181.35;;
42876;SDS011;42341;40.498;72.818;2023-02-22T15:06:43;330.13;;;196.20;;
42876;SDS011;42341;40.498;72.818;2023-02-22T15:09:15;317.70;;;194.40;;
42876;SDS011;42341;40.498;72.818;2023-02-22T15:12:22;312.35;;;189.57;;
42876;SDS011;42341;40.498;72.818;2023-02-22T15:14:48;338.65;;;195.88;;
42876;SDS011;42341;40.498;72.818;2023-02-22T15:19:43;324.15;;;191.05;;
42876;SDS011;42341;40.498;72.818;2023-02-22T15:22:20;325.83;;;195.25;;
42876;SDS011;42341;40.498;72.818;2023-02-22T15:24:58;341.35;;;203.75;;
42876;SDS011;42341;40.498;72.818;2023-02-22T15:27:26;364.40;;;224.98;;
42876;SDS011;42341;40.498;72.818;2023-02-22T15:29:57;386.45;;;219.70;;
42876;SDS011;42341;40.498;72.818;2023-02-22T15:32:33;371.60;;;204.68;;
42876;SDS011;42341;40.498;72.818;2023-02-22T15:35:17;373.58;;;209.27;;
42876;SDS011;42341;40.498;72.818;2023-02-22T15:38:06;394.33;;;227.00;;
42876;SDS011;42341;40.498;72.818;2023-02-22T15:40:46;422.98;;;242.68;;
42876;SDS011;42341;40.498;72.818;2023-02-22T15:43:23;448.80;;;259.40;;
42876;SDS011;42341;40.498;72.818;2023-02-22T15:45:52;411.95;;;229.70;;
42876;SDS011;42341;40.498;72.818;2023-02-22T15:48:19;366.52;;;214.98;;
42876;SDS011;42341;40.498;72.818;2023-02-22T15:53:29;373.17;;;218.32;;
42876;SDS011;42341;40.498;72.818;2023-02-22T15:56:11;369.58;;;211.10;;
42876;SDS011;42341;40.498;72.818;2023-02-22T15:58:43;329.40;;;193.68;;
42876;SDS011;42341;40.498;72.818;2023-02-22T16:01:12;350.52;;;198.73;;
42876;SDS011;42341;40.498;72.818;2023-02-22T16:03:49;373.27;;;219.07;;
42876;SDS011;42341;40.498;72.818;2023-02-22T16:06:31;438.17;;;240.88;;
42876;SDS011;42341;40.498;72.818;2023-02-22T16:09:20;468.77;;;243.63;;
42876;SDS011;42341;40.498;72.818;2023-02-22T16:12:38;437.58;;;230.77;;
42876;SDS011;42341;40.498;72.818;2023-02-22T16:14:45;449.10;;;249.05;;
42876;SDS011;42341;40.498;72.818;2023-02-22T16:22:39;384.92;;;207.50;;
42876;SDS011;42341;40.498;72.818;2023-02-22T16:27:43;349.30;;;199.63;;
42876;SDS011;42341;40.498;72.818;2023-02-22T16:32:42;321.10;;;195.27;;
42876;SDS011;42341;40.498;72.818;2023-02-22T16:35:09;363.17;;;206.65;;
42876;SDS011;42341;40.498;72.818;2023-02-22T16:37:48;383.98;;;211.75;;
42876;SDS011;42341;40.498;72.818;2023-02-22T16:40:23;366.92;;;205.20;;
42876;SDS011;42341;40.498;72.818;2023-02-22T16:43:06;326.88;;;185.23;;
42876;SDS011;42341;40.498;72.818;2023-02-22T16:48:40;329.60;;;180.63;;
42876;SDS011;42341;40.498;72.818;2023-02-22T16:51:08;363.88;;;195.40;;
42876;SDS011;42341;40.498;72.818;2023-02-22T16:53:49;327.60;;;188.35;;
42876;SDS011;42341;40.498;72.818;2023-02-22T16:56:18;334.83;;;188.80;;
42876;SDS011;42341;40.498;72.818;2023-02-22T16:58:47;337.88;;;188.23;;
42876;SDS011;42341;40.498;72.818;2023-02-22T17:01:15;334.42;;;182.27;;
42876;SDS011;42341;40.498;72.818;2023-02-22T17:03:42;323.70;;;172.80;;
42876;SDS011;42341;40.498;72.818;2023-02-22T17:06:08;324.65;;;176.48;;
42876;SDS011;42341;40.498;72.818;2023-02-22T17:08:35;298.52;;;160.57;;
42876;SDS011;42341;40.498;72.818;2023-02-22T17:11:03;303.48;;;167.40;;
42876;SDS011;42341;40.498;72.818;2023-02-22T17:13:29;316.05;;;165.40;;
42876;SDS011;42341;40.498;72.818;2023-02-22T17:15:55;317.17;;;160.32;;
42876;SDS011;42341;40.498;72.818;2023-02-22T17:18:22;282.13;;;138.70;;
42876;SDS011;42341;40.498;72.818;2023-02-22T17:20:52;271.02;;;141.07;;
42876;SDS011;42341;40.498;72.818;2023-02-22T17:23:19;221.18;;;113.88;;
42876;SDS011;42341;40.498;72.818;2023-02-22T17:28:20;284.17;;;156.38;;
42876;SDS011;42341;40.498;72.818;2023-02-22T17:33:18;239.95;;;124.28;;
42876;SDS011;42341;40.498;72.818;2023-02-22T17:35:50;261.92;;;127.40;;
42876;SDS011;42341;40.498;72.818;2023-02-22T17:38:17;275.27;;;133.70;;
42876;SDS011;42341;40.498;72.818;2023-02-22T17:40:44;254.98;;;125.03;;